Delray Beach, Florida
Current Conditions -  °F | °C
As of 10:53 PM on Saturday 24 Jan 2015 (Local Time) from KPMP Reporting Station
Clear Clear  
Wind Chill: 60°   Ceiling: Unl
Heat Index: 60°   Visibility: 10mi
Dew Point: 51°   Wind: 12mph
Humidity: 72%   Direction: 300°WNW
Pressure: 30.01"   Gusts: NA
Location:  26.46°N, 80.07°W
Report Text: KPMP 250353Z AUTO 30010KT 10SM CLR 16/11 A3001 RMK AO2 SLP162 T01560106
Loading
Personal Weather Stations






























Interactive Weather Map New forecast layout! Learn more

10-Day Weather Forecast

Advertisements
Track Severe Weather on mobile